Time;durP1;ratioP1;P1;durP2;ratioP2;P2;SDS_P1;SDS_P2;PMS_P1;PMS_P2;Temp;Humidity;BMP_temperature;BMP_pressure;BME280_temperature;BME280_humidity;BME280_pressure;Samples;Min_cycle;Max_cycle;Signal;HPM_P1;HPM_P2
2022/06/02 00:01:48;;;;;;;17.77;15.90;;;;;;;6.93;100.00;162378.06;5068665;28;20075;-60
2022/06/02 00:04:29;;;;;;;15.93;14.25;;;;;;;6.88;100.00;162364.63;5069390;28;20486;-60
2022/06/02 00:07:10;;;;;;;17.05;12.82;;;;;;;6.85;100.00;162356.53;5068426;28;20032;-60
2022/06/02 00:10:06;;;;;;;16.35;7.68;;;;;;;6.78;100.00;162337.66;5070781;28;20498;-60
2022/06/02 00:12:47;;;;;;;89.50;8.70;;;;;;;6.54;100.00;162275.72;5068584;28;20571;-61
2022/06/02 00:15:36;;;;;;;73.47;7.38;;;;;;;6.27;100.00;162205.75;5068664;28;20024;-61
2022/06/02 00:18:10;;;;;;;185.95;11.10;;;;;;;6.10;100.00;162159.97;5069417;28;20029;-60
2022/06/02 00:20:38;;;;;;;45.83;7.80;;;;;;;5.93;100.00;162116.84;5068766;28;20048;-59
2022/06/02 00:23:13;;;;;;;49.70;7.80;;;;;;;5.86;100.00;162098.00;5069621;28;20415;-59
2022/06/02 00:25:54;;;;;;;18.65;8.93;;;;;;;5.82;100.00;162087.25;5068054;28;20055;-59
2022/06/02 00:28:40;;;;;;;12.93;11.52;;;;;;;5.81;100.00;162085.88;5069999;28;20048;-59
2022/06/02 00:31:11;;;;;;;13.80;12.27;;;;;;;5.83;100.00;162089.97;5068142;28;20078;-60
2022/06/02 00:34:12;;;;;;;13.57;12.18;;;;;;;5.90;100.00;162108.81;5069847;28;20463;-59
2022/06/02 00:36:49;;;;;;;15.40;13.75;;;;;;;5.90;100.00;162108.81;5072331;28;20079;-59
2022/06/02 00:39:18;;;;;;;16.73;15.10;;;;;;;5.95;100.00;162120.91;5073305;28;20035;-59
2022/06/02 00:42:10;;;;;;;;;;;;;;;5.91;100.00;162111.50;5071667;28;20503;-59
2022/06/02 00:44:55;;;;;;;194.48;16.08;;;;;;;5.87;100.00;162102.06;5063951;28;19978;-59
2022/06/02 00:47:42;;;;;;;331.35;21.73;;;;;;;5.87;100.00;162100.72;5071369;28;20036;-59
2022/06/02 00:50:10;;;;;;;366.92;19.60;;;;;;;5.80;100.00;162081.88;5071904;28;20141;-59
2022/06/02 00:52:54;;;;;;;242.55;12.80;;;;;;;5.69;100.00;162055.00;5073290;28;20025;-59
2022/06/02 00:58:29;;;;;;;13.07;5.65;;;;;;;5.50;100.00;162003.81;5072998;28;20058;-60
2022/06/02 01:01:03;;;;;;;52.33;8.70;;;;;;;5.46;100.00;161993.09;5071170;28;20036;-60
2022/06/02 01:03:39;;;;;;;10.23;9.05;;;;;;;5.45;100.00;161990.41;5072021;28;20032;-60
2022/06/02 01:06:20;;;;;;;13.13;9.10;;;;;;;5.46;100.00;161993.09;5051480;28;20056;-60
2022/06/02 01:09:04;;;;;;;180.63;13.75;;;;;;;5.47;100.00;161995.78;5052547;28;20021;-60
2022/06/02 01:11:50;;;;;;;113.43;12.88;;;;;;;5.49;100.00;162002.50;5051263;28;20085;-60
2022/06/02 01:14:24;;;;;;;11.40;5.63;;;;;;;5.47;100.00;161995.78;5068677;28;20112;-60
2022/06/02 01:17:00;;;;;;;8.25;7.53;;;;;;;5.43;100.00;161986.38;5070767;28;20051;-60
2022/06/02 01:19:45;;;;;;;18.35;7.85;;;;;;;5.42;100.00;161982.31;5072604;28;20035;-60
2022/06/02 01:22:29;;;;;;;12.35;10.30;;;;;;;5.42;100.00;161983.69;5069627;28;20430;-60
2022/06/02 01:25:09;;;;;;;12.15;10.82;;;;;;;5.43;100.00;161985.00;5071780;28;20048;-60
2022/06/02 01:27:38;;;;;;;11.77;10.55;;;;;;;5.38;100.00;161974.25;5070596;28;20058;-60
2022/06/02 01:30:32;;;;;;;10.88;7.22;;;;;;;5.32;100.00;161958.13;5070862;28;20643;-60
2022/06/02 01:33:17;;;;;;;8.60;7.68;;;;;;;5.27;100.00;161944.66;5071897;28;20426;-60
2022/06/02 01:35:49;;;;;;;5.93;4.13;;;;;;;5.24;100.00;161936.59;5070701;28;20044;-60
2022/06/02 01:38:31;;;;;;;33.47;4.50;;;;;;;5.20;100.00;161925.81;5072025;28;20032;-61
2022/06/02 01:41:19;;;;;;;21.35;3.80;;;;;;;5.15;100.00;161913.69;5070274;28;20060;-60
2022/06/02 01:44:02;;;;;;;;;;;;;;;5.10;100.00;161900.25;5071907;28;20024;-60
2022/06/02 01:47:04;;;;;;;262.92;12.90;;;;;;;5.07;100.00;161893.53;5070291;28;20380;-60
2022/06/02 01:49:52;;;;;;;107.78;8.38;;;;;;;5.00;100.00;161874.72;5060289;28;20085;-60
2022/06/02 01:52:41;;;;;;;215.75;11.60;;;;;;;4.89;100.00;161845.09;5070307;28;20037;-62
2022/06/02 01:55:23;;;;;;;135.15;10.80;;;;;;;4.80;100.00;161820.94;5070253;28;20093;-60
2022/06/02 01:58:07;;;;;;;144.15;10.52;;;;;;;4.78;100.00;161815.56;5070996;28;20028;-60
2022/06/02 02:00:35;;;;;;;108.70;11.85;;;;;;;4.73;100.00;161804.75;5069737;28;20055;-60
2022/06/02 02:03:24;;;;;;;248.23;15.63;;;;;;;4.71;100.00;161799.41;5071038;28;20436;-60
2022/06/02 02:06:03;;;;;;;252.48;15.02;;;;;;;4.69;100.00;161792.72;5070143;28;20507;-60
2022/06/02 02:08:28;;;;;;;;;;;;;;;4.66;100.00;161784.63;5072541;28;20120;-60
2022/06/02 02:11:12;;;;;;;128.30;10.13;;;;;;;4.64;100.00;161780.59;5069131;28;20006;-60
2022/06/02 02:13:49;;;;;;;88.82;9.13;;;;;;;4.63;100.00;161777.91;5071469;28;20480;-60
2022/06/02 02:16:28;;;;;;;393.55;22.92;;;;;;;4.61;100.00;161772.50;5069278;28;20546;-60
2022/06/02 02:19:08;;;;;;;172.02;11.73;;;;;;;4.56;100.00;161760.41;5071239;28;20075;-60
2022/06/02 02:21:57;;;;;;;43.25;8.77;;;;;;;4.53;100.00;161752.38;5069915;28;20043;-60
2022/06/02 02:24:34;;;;;;;84.72;10.38;;;;;;;4.52;100.00;161748.31;5067676;28;20137;-60
2022/06/02 02:27:21;;;;;;;38.80;9.30;;;;;;;4.50;100.00;161742.97;5069363;28;20045;-60
2022/06/02 02:30:06;;;;;;;7.03;5.43;;;;;;;4.48;100.00;161737.56;5071160;28;20024;-60
2022/06/02 02:33:00;;;;;;;64.80;8.45;;;;;;;4.41;100.00;161720.06;5069425;28;20037;-60
2022/06/02 02:35:47;;;;;;;19.10;6.80;;;;;;;4.36;100.00;161706.66;5069798;28;20045;-60
2022/06/02 02:38:20;;;;;;;74.43;8.30;;;;;;;4.35;100.00;161703.94;5070883;28;20120;-60
2022/06/02 02:40:54;;;;;;;18.83;7.28;;;;;;;4.29;100.00;161689.16;5068985;28;20090;-60
2022/06/02 02:43:26;;;;;;;60.88;9.05;;;;;;;4.24;100.00;161675.72;5070663;28;20024;-60
2022/06/02 02:46:09;;;;;;;116.53;7.75;;;;;;;4.22;100.00;161670.34;5069043;28;20549;-60
2022/06/02 02:49:04;;;;;;;118.35;8.52;;;;;;;4.16;100.00;161654.22;5070900;28;20028;-60
2022/06/02 02:51:48;;;;;;;45.08;5.03;;;;;;;4.04;100.00;161624.66;5069487;28;20150;-60
2022/06/02 02:54:32;;;;;;;43.55;5.65;;;;;;;4.01;100.00;161616.59;5070388;28;20035;-59
2022/06/02 02:57:09;;;;;;;61.63;7.03;;;;;;;3.94;100.00;161597.78;5068760;28;20052;-59
2022/06/02 02:59:51;;;;;;;164.43;9.82;;;;;;;3.97;100.00;161605.84;5070824;28;20028;-59
2022/06/02 03:02:35;;;;;;;143.48;10.23;;;;;;;3.94;100.00;161597.78;5068834;28;20047;-60
2022/06/02 03:05:16;;;;;;;53.53;7.07;;;;;;;3.90;100.00;161588.38;5069217;28;20028;-59
2022/06/02 03:07:41;;;;;;;410.52;26.60;;;;;;;3.90;100.00;161587.03;5070318;28;20025;-59
2022/06/02 03:10:10;;;;;;;306.67;22.23;;;;;;;3.87;100.00;161578.97;5068762;28;20517;-60
2022/06/02 03:12:38;;;;;;;194.68;16.75;;;;;;;3.81;100.00;161565.53;5070560;28;20020;-60
2022/06/02 03:15:28;;;;;;;257.90;18.17;;;;;;;3.79;100.00;161560.16;5068954;28;20020;-59
2022/06/02 03:18:28;;;;;;;68.90;9.80;;;;;;;3.75;100.00;161549.41;5070118;28;20052;-60
2022/06/02 03:21:07;;;;;;;66.55;14.60;;;;;;;3.71;100.00;161537.31;5046228;28;20479;-59
2022/06/02 03:23:41;;;;;;;15.93;11.52;;;;;;;3.76;100.00;161552.06;5067338;28;20037;-59
2022/06/02 03:26:20;;;;;;;65.57;13.45;;;;;;;3.78;100.00;161557.44;5068981;28;20044;-59
2022/06/02 03:28:56;;;;;;;175.25;16.88;;;;;;;3.79;100.00;161560.16;5070034;28;20055;-58
2022/06/02 03:31:44;;;;;;;71.78;12.18;;;;;;;3.79;100.00;161560.16;5068650;28;20132;-59
2022/06/02 03:34:21;;;;;;;12.48;7.28;;;;;;;3.77;100.00;161553.44;5070062;28;20020;-60
2022/06/02 03:37:11;;;;;;;106.78;14.43;;;;;;;3.78;100.00;161557.44;5068582;28;20044;-59
2022/06/02 03:39:46;;;;;;;27.42;13.13;;;;;;;3.76;100.00;161550.75;5065485;28;20044;-59
2022/06/02 03:42:32;;;;;;;16.83;13.40;;;;;;;3.84;100.00;161570.88;5059023;28;20126;-59
2022/06/02 03:45:25;;;;;;;19.08;14.70;;;;;;;3.90;100.00;161587.03;5054999;28;20048;-59
2022/06/02 03:47:51;;;;;;;22.48;15.23;;;;;;;3.97;100.00;161607.19;5048682;28;20041;-60
2022/06/02 03:50:34;;;;;;;19.13;14.80;;;;;;;4.02;100.00;161617.97;5048186;28;20092;-60
2022/06/02 03:53:41;;;;;;;33.10;17.00;;;;;;;4.07;100.00;161632.69;5047104;28;20052;-60
2022/06/02 03:56:12;;;;;;;43.33;12.55;;;;;;;4.12;100.00;161646.19;5036743;28;20040;-61
2022/06/02 03:58:59;;;;;;;36.60;13.88;;;;;;;4.17;100.00;161656.91;5047655;28;20029;-61
2022/06/02 04:01:26;;;;;;;21.67;13.05;;;;;;;4.19;100.00;161662.31;5052991;28;20037;-61
2022/06/02 04:03:55;;;;;;;16.75;13.27;;;;;;;4.26;100.00;161681.13;5058068;28;20109;-61
2022/06/02 04:06:40;;;;;;;13.02;11.57;;;;;;;4.34;100.00;161702.63;5058729;28;20041;-61
2022/06/02 04:09:26;;;;;;;18.20;13.38;;;;;;;4.42;100.00;161724.13;5062747;28;20022;-60
2022/06/02 04:15:07;;;;;;;24.00;17.17;;;;;;;4.64;100.00;161780.59;5053761;28;20043;-59
2022/06/02 04:17:53;;;;;;;43.95;16.10;;;;;;;4.74;100.00;161806.13;5072395;28;20040;-58
2022/06/02 04:20:34;;;;;;;62.05;18.67;;;;;;;4.81;100.00;161823.59;5072031;28;20020;-58
2022/06/02 04:23:18;;;;;;;36.03;18.83;;;;;;;4.84;100.00;161833.00;5072247;28;20085;-58
2022/06/02 04:26:04;;;;;;;36.33;22.50;;;;;;;4.90;100.00;161847.81;5071825;28;20519;-58
2022/06/02 04:29:14;;;;;;;32.72;24.63;;;;;;;4.98;100.00;161869.31;5073538;28;20056;-58
2022/06/02 04:31:52;;;;;;;152.27;33.33;;;;;;;5.08;100.00;161896.25;5071593;28;20044;-58
2022/06/02 04:34:38;;;;;;;96.90;30.10;;;;;;;5.19;100.00;161924.50;5073432;28;20089;-58
2022/06/02 04:37:09;;;;;;;69.25;32.28;;;;;;;5.31;100.00;161955.44;5070727;28;20036;-58
2022/06/02 04:39:42;;;;;;;115.43;31.55;;;;;;;5.40;100.00;161979.59;5073410;28;20056;-58
2022/06/02 04:42:22;;;;;;;70.93;29.55;;;;;;;5.48;100.00;161999.81;5071811;28;20044;-58
2022/06/02 04:45:05;;;;;;;48.42;27.70;;;;;;;5.55;100.00;162018.66;5072776;28;20574;-58
2022/06/02 04:47:42;;;;;;;51.25;26.60;;;;;;;5.63;100.00;162038.81;5071846;28;20040;-58
2022/06/02 04:50:25;;;;;;;70.50;27.25;;;;;;;5.63;100.00;162038.81;5071706;28;20016;-58
2022/06/02 04:53:20;;;;;;;81.20;26.10;;;;;;;5.75;100.00;162068.44;5072621;28;20387;-58
2022/06/02 04:56:02;;;;;;;82.97;25.17;;;;;;;5.81;100.00;162084.56;5071596;28;20036;-58
2022/06/02 04:58:46;;;;;;;79.97;27.17;;;;;;;5.82;100.00;162087.25;5073054;28;20085;-58
2022/06/02 05:01:32;;;;;;;51.22;26.88;;;;;;;5.91;100.00;162110.13;5071165;28;20047;-58
2022/06/02 05:04:23;;;;;;;37.58;28.33;;;;;;;5.99;100.00;162133.09;5072504;28;20043;-58
2022/06/02 05:07:18;;;;;;;33.85;27.65;;;;;;;6.11;100.00;162162.66;5070860;28;20504;-58
2022/06/02 05:09:54;;;;;;;43.58;33.47;;;;;;;6.22;100.00;162192.25;5071826;28;20044;-58
2022/06/02 05:12:34;;;;;;;43.28;32.30;;;;;;;6.35;100.00;162227.28;5071077;28;20404;-58
2022/06/02 05:15:37;;;;;;;47.83;34.95;;;;;;;6.50;100.00;162266.31;5070745;28;20116;-58
2022/06/02 05:18:32;;;;;;;43.88;32.72;;;;;;;6.70;100.00;162316.13;5072379;28;20483;-60
2022/06/02 05:21:27;;;;;;;46.58;33.72;;;;;;;6.84;100.00;162353.81;5070543;28;20044;-59
2022/06/02 05:23:55;;;;;;;49.05;33.92;;;;;;;6.98;100.00;162390.19;5069178;28;20119;-59
2022/06/02 05:27:03;;;;;;;50.70;35.37;;;;;;;7.18;100.00;162442.72;5059589;28;20029;-60
2022/06/02 05:29:40;;;;;;;52.50;38.60;;;;;;;7.41;100.00;162502.00;5062050;28;20023;-60
2022/06/02 05:32:26;;;;;;;54.55;38.42;;;;;;;7.58;100.00;162547.75;5060180;28;20041;-60
2022/06/02 05:35:12;;;;;;;47.22;36.60;;;;;;;7.79;100.00;162601.66;5062128;28;20027;-59
2022/06/02 05:38:00;;;;;;;48.88;39.70;;;;;;;7.93;100.00;162638.03;5060986;28;20105;-58
2022/06/02 05:40:48;;;;;;;47.78;38.55;;;;;;;8.03;100.00;162665.00;5060039;28;20044;-58
2022/06/02 05:43:32;;;;;;;41.92;36.78;;;;;;;8.17;100.00;162701.38;5062390;28;20075;-58
2022/06/02 05:46:27;;;;;;;58.58;38.95;;;;;;;8.32;100.00;162739.09;5060998;28;20059;-58
2022/06/02 05:49:14;;;;;;;45.50;35.13;;;;;;;8.45;100.00;162774.13;5062165;28;20039;-58
2022/06/02 05:52:15;;;;;;;38.80;32.35;;;;;;;8.65;100.00;162825.44;5058468;28;20045;-58
2022/06/02 05:54:50;;;;;;;34.67;30.67;;;;;;;8.78;100.00;162860.50;5043802;28;20064;-59
2022/06/02 05:57:37;;;;;;;39.17;33.03;;;;;;;8.89;100.00;162890.19;5058801;28;20037;-58
2022/06/02 06:00:17;;;;;;;38.00;33.15;;;;;;;9.00;100.00;162917.13;5055369;28;20021;-58
2022/06/02 06:03:23;;;;;;;33.10;29.52;;;;;;;9.17;100.00;162962.97;5051740;28;20108;-58
2022/06/02 06:06:02;;;;;;;33.70;29.60;;;;;;;9.34;100.00;163006.16;5049898;28;20041;-59
2022/06/02 06:08:39;;;;;;;33.05;27.65;;;;;;;9.47;100.00;163041.22;5051524;28;20036;-59
2022/06/02 06:11:28;;;;;;;35.25;31.45;;;;;;;9.67;100.00;163093.81;5050216;28;20041;-59
2022/06/02 06:14:08;;;;;;;34.88;31.20;;;;;;;9.91;100.00;163154.50;5051028;28;20035;-59
2022/06/02 06:16:44;;;;;;;32.13;28.80;;;;;;;10.10;100.00;163205.78;5049997;28;20044;-59
2022/06/02 06:19:40;;;;;;;25.50;22.92;;;;;;;10.32;100.00;163262.44;5051508;28;20029;-58
2022/06/02 06:22:47;;;;;;;27.42;24.85;;;;;;;10.52;100.00;163313.81;5051842;28;20076;-58
2022/06/02 06:25:41;;;;;;;27.00;24.20;;;;;;;10.74;100.00;163373.22;5049461;28;20178;-58
2022/06/02 06:28:14;;;;;;;25.80;23.30;;;;;;;10.94;100.00;163424.50;5051135;28;20036;-57
2022/06/02 06:30:58;;;;;;;22.15;20.10;;;;;;;11.15;100.00;163479.88;5049714;28;20037;-58
2022/06/02 06:33:33;;;;;;;20.80;18.55;;;;;;;11.55;100.00;163583.84;5050565;28;20075;-58
2022/06/02 06:36:23;;;;;;;21.60;19.42;;;;;;;11.95;100.00;163687.84;5049075;28;20520;-58
2022/06/02 06:39:24;;;;;;;18.02;16.27;;;;;;;12.12;100.00;163733.84;5050993;28;20061;-58
2022/06/02 06:41:57;;;;;;;16.48;14.82;;;;;;;12.24;100.00;163764.91;5048203;28;20445;-58
2022/06/02 06:44:42;;;;;;;15.68;13.73;;;;;;;12.56;100.00;163848.66;5050589;28;20376;-58
2022/06/02 06:47:20;;;;;;;15.23;13.80;;;;;;;12.69;100.00;163882.47;5049542;28;20526;-58
2022/06/02 06:50:04;;;;;;;;;;;;;;;12.90;100.00;163936.53;5051150;28;20029;-58
2022/06/02 06:53:03;;;;;;;11.80;7.10;;;;;;;12.91;100.00;163940.63;5049671;28;20371;-58
2022/06/02 06:55:47;;;;;;;5.88;5.32;;;;;;;13.21;100.00;164019.03;5049393;28;20047;-58
2022/06/02 06:58:40;;;;;;;5.05;4.55;;;;;;;13.10;100.00;163989.25;5050127;28;20057;-58
2022/06/02 07:01:25;;;;;;;7.32;4.28;;;;;;;13.24;100.00;164027.09;5049392;28;20041;-58
2022/06/02 07:04:00;;;;;;;9.38;6.50;;;;;;;13.50;100.00;164094.78;5050349;28;20040;-58
2022/06/02 07:06:42;;;;;;;7.72;6.63;;;;;;;13.60;100.00;164121.78;5048861;28;20048;-58
2022/06/02 07:09:20;;;;;;;10.55;6.88;;;;;;;13.47;100.00;164088.03;5050565;28;20043;-58
2022/06/02 07:14:52;;;;;;;9.18;8.38;;;;;;;13.47;100.00;164088.03;5049762;28;20119;-58
2022/06/02 07:17:21;;;;;;;11.35;6.63;;;;;;;13.36;100.00;164056.88;5066158;28;20067;-58
2022/06/02 07:20:02;;;;;;;8.80;8.00;;;;;;;13.48;100.00;164089.34;5069270;28;20048;-58
2022/06/02 07:23:02;;;;;;;8.80;6.20;;;;;;;13.61;100.00;164124.50;5054496;28;20051;-58
2022/06/02 07:25:54;;;;;;;7.65;6.80;;;;;;;13.66;100.00;164135.34;5029690;28;20084;-58
2022/06/02 07:29:08;;;;;;;10.73;6.45;;;;;;;13.90;100.00;164200.25;5048572;28;20396;-58
2022/06/02 07:31:49;;;;;;;9.32;7.63;;;;;;;14.19;100.00;164275.97;5036313;28;20106;-58
2022/06/02 07:34:56;;;;;;;9.52;6.30;;;;;;;14.06;100.00;164240.81;5061263;28;20029;-58
2022/06/02 07:37:48;;;;;;;5.57;4.40;;;;;;;14.24;100.00;164288.16;5068543;28;20044;-58
2022/06/02 07:40:28;;;;;;;8.95;7.47;;;;;;;14.15;100.00;164265.19;5068146;28;20048;-58
2022/06/02 07:43:31;;;;;;;10.13;6.32;;;;;;;14.02;100.00;164231.34;5068493;28;20032;-58
2022/06/02 07:46:24;;;;;;;7.90;7.13;;;;;;;14.27;100.00;164297.63;5070893;28;20585;-58
2022/06/02 07:48:58;;;;;;;8.38;7.00;;;;;;;14.64;100.00;164392.31;5059061;28;20024;-58
2022/06/02 07:51:28;;;;;;;9.43;8.10;;;;;;;15.07;100.00;164506.09;5072033;28;20069;-58
2022/06/02 07:53:57;;;;;;;6.18;5.65;;;;;;;15.32;100.00;164571.03;5072560;28;20434;-58
2022/06/02 07:56:37;;;;;;;14.73;7.03;;;;;;;15.63;100.00;164653.66;5059827;28;20056;-59
2022/06/02 07:59:20;;;;;;;6.13;5.53;;;;;;;15.03;100.00;164496.63;5051919;28;20078;-58
2022/06/02 08:02:09;;;;;;;7.95;5.57;;;;;;;14.95;100.00;164473.56;5051711;28;20052;-58
2022/06/02 08:04:42;;;;;;;9.63;6.65;;;;;;;15.21;100.00;164542.59;5053259;28;20082;-58
2022/06/02 08:07:21;;;;;;;7.38;6.55;;;;;;;15.21;100.00;164544.00;5052366;28;20051;-58
2022/06/02 08:10:48;;;;;;;6.00;5.50;;;;;;;15.19;100.00;164538.56;5053320;28;20032;-58
2022/06/02 08:13:39;;;;;;;7.00;6.32;;;;;;;15.03;100.00;164495.22;4982446;28;20521;-60
2022/06/02 08:16:21;;;;;;;6.80;6.20;;;;;;;14.82;100.00;164439.78;5018460;28;20091;-58
2022/06/02 08:18:46;;;;;;;6.45;5.90;;;;;;;15.31;100.00;164568.31;5047335;28;20033;-58
2022/06/02 08:21:40;;;;;;;5.38;4.88;;;;;;;15.32;100.00;164572.41;5052116;28;20191;-58
2022/06/02 08:24:17;;;;;;;6.03;5.38;;;;;;;15.24;100.00;164550.75;5052650;28;20456;-57
2022/06/02 08:26:57;;;;;;;6.15;4.78;;;;;;;15.13;100.00;164520.94;5051354;28;20041;-58
2022/06/02 08:29:47;;;;;;;10.95;5.82;;;;;;;15.62;100.00;164649.53;5053599;28;20036;-58
2022/06/02 08:32:45;;;;;;;6.60;5.30;;;;;;;16.02;100.00;164755.22;5051939;28;20060;-58
2022/06/02 08:35:19;;;;;;;9.68;6.10;;;;;;;16.50;100.00;164882.53;5039432;28;20036;-58
2022/06/02 08:38:06;;;;;;;9.77;5.63;;;;;;;16.54;100.00;164892.00;5053070;28;20132;-58
2022/06/02 08:41:28;;;;;;;5.55;5.05;;;;;;;16.43;100.00;164863.56;5051888;28;20051;-58
2022/06/02 08:44:15;;;;;;;7.50;5.22;;;;;;;16.22;100.00;164806.69;5052671;28;20035;-58
2022/06/02 08:47:10;;;;;;;7.43;6.57;;;;;;;15.78;100.00;164691.56;5051345;28;20464;-58
2022/06/02 08:49:50;;;;;;;6.20;4.93;;;;;;;16.06;100.00;164766.03;5052856;28;20114;-58
2022/06/02 08:52:31;;;;;;;7.57;3.60;;;;;;;16.48;100.00;164877.13;5051695;28;20041;-58
2022/06/02 08:55:19;;;;;;;5.25;3.63;;;;;;;16.77;100.00;164953.00;5052255;28;20033;-58
2022/06/02 08:57:56;;;;;;;6.22;4.88;;;;;;;16.99;100.00;165009.94;5071495;28;20055;-58
2022/06/02 09:00:39;;;;;;;5.90;4.60;;;;;;;17.29;100.00;165088.53;5071607;28;20044;-58
2022/06/02 09:03:32;;;;;;;4.25;3.85;;;;;;;16.94;100.00;164996.41;5073100;28;20024;-58
2022/06/02 09:06:23;;;;;;;5.43;4.93;;;;;;;17.67;100.00;165188.84;5071515;28;20036;-58
2022/06/02 09:09:23;;;;;;;5.78;4.63;;;;;;;18.31;100.00;165356.97;5072591;28;20029;-58
2022/06/02 09:12:05;;;;;;;5.35;3.78;;;;;;;17.83;100.00;165229.50;5070886;28;20037;-58
2022/06/02 09:14:42;;;;;;;3.72;3.22;;;;;;;17.85;100.00;165236.28;5072396;28;20476;-58
2022/06/02 09:17:35;;;;;;;4.10;3.70;;;;;;;17.94;100.00;165257.97;5071032;28;20037;-58
2022/06/02 09:20:30;;;;;;;3.85;3.55;;;;;;;17.53;100.00;165150.88;5070762;28;20399;-57
2022/06/02 09:23:17;;;;;;;3.22;2.90;;;;;;;17.32;100.00;165096.63;5070082;28;20039;-58
2022/06/02 09:26:02;;;;;;;5.25;4.68;;;;;;;16.94;100.00;164996.41;5070164;28;20055;-58
2022/06/02 09:28:35;;;;;;;4.43;3.90;;;;;;;17.49;100.00;165141.41;5072579;28;20039;-58
2022/06/02 09:31:38;;;;;;;3.40;3.10;;;;;;;17.94;100.00;165257.97;5064594;28;20044;-58
2022/06/02 09:34:22;;;;;;;6.55;4.55;;;;;;;18.57;100.00;165423.41;5056335;28;20214;-59
2022/06/02 09:37:25;;;;;;;10.02;5.45;;;;;;;18.63;100.00;165439.66;5062417;28;20033;-58
2022/06/02 09:40:02;;;;;;;5.60;4.63;;;;;;;18.28;100.00;165348.81;5069941;28;20407;-58
2022/06/02 09:42:40;;;;;;;4.63;4.22;;;;;;;18.31;100.00;165356.97;5050394;28;20060;-58
2022/06/02 09:45:49;;;;;;;5.68;5.03;;;;;;;18.37;100.00;165373.22;5051078;28;20380;-58
2022/06/02 09:48:21;;;;;;;4.15;3.53;;;;;;;18.34;100.00;165365.13;5062609;28;20032;-58
2022/06/02 09:51:29;;;;;;;3.67;3.38;;;;;;;17.91;100.00;165251.16;5070520;28;20513;-58
2022/06/02 09:54:07;;;;;;;2.90;2.40;;;;;;;17.70;100.00;165196.94;5070839;28;20391;-58
2022/06/02 09:56:56;;;;;;;3.85;3.45;;;;;;;17.84;100.00;165233.56;5066803;28;20033;-58
2022/06/02 09:59:41;;;;;;;6.72;3.50;;;;;;;18.10;100.00;165301.38;5061384;28;20037;-58
2022/06/02 10:02:27;;;;;;;4.35;3.95;;;;;;;17.79;100.00;165218.63;5054204;28;20125;-58
2022/06/02 10:05:22;;;;;;;4.65;3.80;;;;;;;18.22;100.00;165332.56;5052552;28;20040;-58
2022/06/02 10:08:00;;;;;;;3.85;3.40;;;;;;;18.77;100.00;165476.31;5039013;28;20033;-58
2022/06/02 10:10:41;;;;;;;4.32;3.92;;;;;;;19.32;100.00;165622.84;5056816;28;20415;-57
2022/06/02 10:13:43;;;;;;;2.92;2.72;;;;;;;19.26;100.00;165606.56;5069369;28;20023;-58
2022/06/02 10:16:23;;;;;;;5.70;3.42;;;;;;;19.58;100.00;165689.34;5069392;28;20102;-58
2022/06/02 10:19:17;;;;;;;4.20;2.35;;;;;;;18.79;100.00;165481.75;5069543;28;20120;-58
2022/06/02 10:21:56;;;;;;;5.28;2.85;;;;;;;17.92;100.00;165253.88;5065748;28;20114;-58
2022/06/02 10:24:40;;;;;;;2.45;2.25;;;;;;;17.66;100.00;165186.13;5060224;28;20041;-58
2022/06/02 10:27:30;;;;;;;3.10;2.80;;;;;;;16.68;100.00;164927.25;5069500;28;20048;-58
2022/06/02 10:29:56;;;;;;;2.95;2.63;;;;;;;16.64;100.00;164917.78;5064896;28;20016;-58
2022/06/02 10:32:27;;;;;;;3.05;2.78;;;;;;;16.83;100.00;164967.84;5065724;28;20044;-58
2022/06/02 10:35:16;;;;;;;3.38;3.08;;;;;;;17.35;100.00;165104.78;5069410;28;20035;-58
2022/06/02 10:37:50;;;;;;;2.78;2.58;;;;;;;17.76;100.00;165211.84;5067673;28;20119;-58
2022/06/02 10:40:42;;;;;;;4.60;2.92;;;;;;;18.27;100.00;165346.16;5068052;28;20089;-58
2022/06/02 10:43:33;;;;;;;3.35;3.03;;;;;;;18.78;100.00;165479.03;5069988;28;20032;-58
2022/06/02 10:46:21;;;;;;;7.00;4.82;;;;;;;19.37;100.00;165633.72;5069211;28;20132;-58
2022/06/02 10:49:13;;;;;;;4.47;3.75;;;;;;;19.52;100.00;165673.03;5068284;28;20030;-58
2022/06/02 10:51:57;;;;;;;3.33;3.00;;;;;;;19.82;100.00;165753.13;5062317;28;20416;-58
2022/06/02 10:54:37;;;;;;;5.15;3.65;;;;;;;19.85;99.35;165759.94;5062376;28;20032;-58
2022/06/02 10:57:40;;;;;;;3.03;2.15;;;;;;;20.21;97.78;165856.31;5062311;28;20037;-58
2022/06/02 11:00:16;;;;;;;2.38;2.17;;;;;;;20.16;79.73;165842.72;5069325;28;20503;-58
2022/06/02 11:03:32;;;;;;;3.63;2.90;;;;;;;20.36;97.34;165895.66;5070127;28;20557;-58
2022/06/02 11:06:16;;;;;;;3.88;2.92;;;;;;;20.21;82.02;165856.31;5050998;28;20101;-58
2022/06/02 11:09:31;;;;;;;3.90;2.92;;;;;;;20.95;90.50;166050.47;5070659;28;20388;-58
2022/06/02 11:12:18;;;;;;;5.35;2.72;;;;;;;20.89;91.16;166035.53;5068808;28;20040;-56
2022/06/02 11:15:17;;;;;;;2.88;2.55;;;;;;;19.94;90.56;165785.72;5070332;28;20030;-56
2022/06/02 11:17:54;;;;;;;4.32;3.08;;;;;;;19.27;98.79;165609.28;5063889;28;20063;-56
2022/06/02 11:20:44;;;;;;;4.32;3.00;;;;;;;18.75;92.79;165470.88;5068059;28;20032;-58
2022/06/02 11:23:47;;;;;;;4.95;3.83;;;;;;;18.02;100.00;165281.06;5070294;28;20028;-58
2022/06/02 11:26:49;;;;;;;3.53;2.95;;;;;;;18.49;100.00;165403.09;5068328;28;20656;-58
2022/06/02 11:29:52;;;;;;;5.95;3.10;;;;;;;19.09;100.00;165560.47;5070225;28;20101;-58
2022/06/02 11:32:44;;;;;;;9.50;2.92;;;;;;;19.59;92.76;165692.03;5068597;28;20109;-58
2022/06/02 11:35:31;;;;;;;6.32;2.80;;;;;;;19.21;92.29;165593.00;5069350;28;20020;-58
2022/06/02 11:38:24;;;;;;;2.78;2.58;;;;;;;19.22;89.63;165595.72;5070234;28;20430;-58
2022/06/02 11:41:16;;;;;;;3.15;2.83;;;;;;;19.68;87.99;165716.47;5068304;28;20044;-58
2022/06/02 11:44:00;;;;;;;7.75;3.83;;;;;;;19.38;88.53;165636.44;5069962;28;20032;-58
2022/06/02 11:47:06;;;;;;;2.78;2.33;;;;;;;18.96;82.41;165527.88;5068514;28;20039;-58
2022/06/02 11:49:58;;;;;;;3.80;3.50;;;;;;;18.94;89.88;165522.50;5070260;28;20020;-57
2022/06/02 11:52:38;;;;;;;5.13;2.95;;;;;;;18.73;100.00;165465.47;5068837;28;20037;-57
2022/06/02 11:55:41;;;;;;;4.25;3.63;;;;;;;19.29;100.00;165613.34;5068352;28;20112;-58
2022/06/02 11:58:41;;;;;;;3.22;2.80;;;;;;;19.36;96.11;165631.00;5070179;28;20051;-58
2022/06/02 12:01:24;;;;;;;3.72;3.42;;;;;;;19.22;94.32;165595.72;5068474;28;20459;-58
2022/06/02 12:04:27;;;;;;;7.22;3.72;;;;;;;19.56;91.41;165685.25;5069668;28;20369;-58
2022/06/02 12:07:10;;;;;;;3.50;3.10;;;;;;;19.52;98.65;165674.41;5068600;28;20044;-58
2022/06/02 12:10:00;;;;;;;3.67;3.00;;;;;;;19.54;83.50;165679.84;5069678;28;20028;-58
2022/06/02 12:12:43;;;;;;;4.88;2.65;;;;;;;19.43;87.79;165649.97;5068684;28;20380;-58
2022/06/02 12:15:51;;;;;;;2.10;1.90;;;;;;;19.38;78.91;165636.44;5068947;28;20025;-58
2022/06/02 12:18:28;;;;;;;4.82;2.47;;;;;;;19.65;80.29;165709.69;5067600;28;20021;-58
2022/06/02 12:21:15;;;;;;;3.28;2.45;;;;;;;19.95;79.13;165788.44;5048400;28;20041;-58
2022/06/02 12:24:22;;;;;;;4.00;2.50;;;;;;;19.90;75.25;165774.88;5049146;28;20025;-58
2022/06/02 12:27:16;;;;;;;3.53;2.60;;;;;;;20.00;72.33;165799.28;5046511;28;20399;-58
2022/06/02 12:29:53;;;;;;;1.98;1.73;;;;;;;20.01;66.37;165802.00;5049414;28;20040;-58
2022/06/02 12:32:24;;;;;;;4.30;2.88;;;;;;;19.94;74.04;165785.72;5060817;28;20044;-58
2022/06/02 12:35:04;;;;;;;6.50;3.03;;;;;;;20.06;72.96;165815.59;5053346;28;20025;-58
2022/06/02 12:37:56;;;;;;;2.85;2.38;;;;;;;19.93;68.16;165783.00;5051713;28;20429;-58
2022/06/02 12:40:33;;;;;;;2.90;2.42;;;;;;;20.27;76.36;165872.63;5052106;28;20519;-58
2022/06/02 12:43:24;;;;;;;2.90;2.70;;;;;;;20.41;70.59;165907.88;5053032;28;20033;-58
2022/06/02 12:46:08;;;;;;;6.15;2.60;;;;;;;20.45;68.01;165918.72;5051555;28;20114;-58